createdAt,value
2022-12-06T00:00:46.111Z,5.97
2022-12-06T00:03:12.909Z,6.90
2022-12-06T00:05:45.948Z,7.55
2022-12-06T00:08:13.176Z,7.45
2022-12-06T00:10:39.855Z,7.03
2022-12-06T00:13:06.534Z,6.53
2022-12-06T00:15:35.597Z,6.93
2022-12-06T00:18:02.723Z,6.45
2022-12-06T00:20:29.422Z,6.43
2022-12-06T00:22:56.542Z,7.25
2022-12-06T00:25:23.228Z,6.75
2022-12-06T00:27:50.359Z,7.13
2022-12-06T00:30:17.194Z,8.15
2022-12-06T00:32:43.896Z,7.35
2022-12-06T00:35:10.635Z,8.77
2022-12-06T00:37:37.440Z,8.43
2022-12-06T00:40:04.393Z,7.00
2022-12-06T00:42:31.088Z,7.15
2022-12-06T00:44:57.805Z,8.32
2022-12-06T00:47:24.515Z,8.43
2022-12-06T00:49:51.353Z,8.38
2022-12-06T00:52:18.051Z,10.35
2022-12-06T00:54:44.757Z,10.50
2022-12-06T00:57:11.449Z,8.77
2022-12-06T00:59:38.186Z,8.82
2022-12-06T01:02:07.365Z,10.00
2022-12-06T01:04:34.198Z,9.35
2022-12-06T01:07:01.004Z,9.57
2022-12-06T01:09:31.009Z,9.15
2022-12-06T01:11:58.432Z,9.45
2022-12-06T01:14:25.275Z,12.00
2022-12-06T01:16:51.968Z,12.30
2022-12-06T01:19:18.665Z,10.95
2022-12-06T01:21:45.319Z,11.73
2022-12-06T01:24:12.026Z,11.40
2022-12-06T01:26:38.761Z,9.82
2022-12-06T01:29:05.706Z,10.98
2022-12-06T01:31:38.091Z,10.40
2022-12-06T01:34:06.766Z,10.73
2022-12-06T01:36:33.383Z,10.98
2022-12-06T01:39:01.697Z,11.15
2022-12-06T01:41:28.365Z,11.05
2022-12-06T01:43:55.741Z,11.57
2022-12-06T01:46:25.383Z,11.07
2022-12-06T01:48:54.920Z,12.27
2022-12-06T01:51:21.981Z,12.57
2022-12-06T01:53:49.121Z,12.20
2022-12-06T01:56:16.035Z,11.93
2022-12-06T01:58:44.928Z,12.05
2022-12-06T02:01:11.789Z,11.77
2022-12-06T02:03:38.871Z,12.98
2022-12-06T02:06:09.188Z,12.25
2022-12-06T02:08:44.515Z,11.60
2022-12-06T02:11:11.144Z,14.43
2022-12-06T02:13:38.500Z,14.13
2022-12-06T02:16:11.286Z,13.27
2022-12-06T02:18:56.470Z,16.77
2022-12-06T02:21:50.929Z,15.98
2022-12-06T02:24:32.550Z,14.55
2022-12-06T02:27:13.964Z,13.68
2022-12-06T02:29:49.755Z,13.57
2022-12-06T02:32:22.880Z,17.15
2022-12-06T02:34:52.681Z,15.88
2022-12-06T02:37:25.427Z,16.60
2022-12-06T02:39:54.749Z,16.40
2022-12-06T02:42:23.428Z,19.95
2022-12-06T02:44:58.474Z,14.73
2022-12-06T02:47:27.288Z,14.27
2022-12-06T02:49:56.034Z,13.70
2022-12-06T02:52:27.265Z,14.30
2022-12-06T02:54:55.735Z,15.85
2022-12-06T02:57:27.489Z,15.05
2022-12-06T02:59:54.343Z,15.88
2022-12-06T03:02:21.802Z,14.68
2022-12-06T03:04:51.265Z,15.15
2022-12-06T03:07:24.155Z,14.45
2022-12-06T03:10:08.827Z,16.13
2022-12-06T03:12:44.370Z,13.82
2022-12-06T03:15:26.339Z,12.95
2022-12-06T03:17:58.312Z,13.70
2022-12-06T03:20:27.443Z,12.65
2022-12-06T03:22:58.790Z,14.20
2022-12-06T03:25:26.426Z,14.25
2022-12-06T03:27:54.710Z,15.80
2022-12-06T03:30:21.492Z,16.02
2022-12-06T03:32:49.598Z,14.00
2022-12-06T03:35:19.628Z,15.32
2022-12-06T03:37:48.079Z,17.83
2022-12-06T03:40:25.877Z,17.98
2022-12-06T03:42:52.903Z,15.32
2022-12-06T03:45:20.863Z,17.85
2022-12-06T03:47:52.935Z,15.48
2022-12-06T03:50:22.513Z,18.90
2022-12-06T03:52:51.082Z,25.38
2022-12-06T03:55:17.867Z,25.08
2022-12-06T03:57:45.030Z,16.45
2022-12-06T04:00:11.909Z,13.80
2022-12-06T04:02:38.707Z,15.73
2022-12-06T04:05:05.557Z,15.70
2022-12-06T04:07:32.416Z,15.00
2022-12-06T04:10:04.665Z,16.52
2022-12-06T04:12:50.721Z,16.95
2022-12-06T04:15:17.938Z,16.52
2022-12-06T04:18:03.269Z,17.58
2022-12-06T04:20:50.098Z,16.38
2022-12-06T04:23:17.601Z,17.38
2022-12-06T04:25:44.264Z,17.77
2022-12-06T04:28:29.522Z,16.60
2022-12-06T04:31:20.148Z,17.98
2022-12-06T04:34:07.489Z,18.05
2022-12-06T04:36:52.494Z,19.55
2022-12-06T04:39:20.916Z,18.73
2022-12-06T04:42:06.743Z,26.30
2022-12-06T04:44:33.408Z,18.73
2022-12-06T04:47:00.535Z,20.27
2022-12-06T04:49:27.533Z,31.10
2022-12-06T04:51:54.896Z,19.48
2022-12-06T04:54:22.043Z,19.13
2022-12-06T04:56:48.670Z,22.30
2022-12-06T04:59:15.339Z,18.92
2022-12-06T05:01:41.959Z,25.45
2022-12-06T05:04:08.743Z,22.42
2022-12-06T05:06:35.415Z,24.58
2022-12-06T05:09:03.265Z,30.25
2022-12-06T05:11:29.914Z,29.08
2022-12-06T05:13:56.667Z,23.85
2022-12-06T05:16:23.325Z,22.52
2022-12-06T05:18:49.980Z,21.85
2022-12-06T05:21:18.174Z,29.85
2022-12-06T05:23:44.857Z,21.20
2022-12-06T05:26:12.980Z,23.60
2022-12-06T05:28:39.661Z,22.08
2022-12-06T05:31:06.581Z,30.20
2022-12-06T05:33:33.257Z,37.75
2022-12-06T05:36:00.497Z,17.63
2022-12-06T05:38:27.138Z,25.55
2022-12-06T05:40:53.739Z,22.20
2022-12-06T05:43:20.376Z,22.77
2022-12-06T05:45:47.227Z,20.98
2022-12-06T05:48:13.908Z,20.70
2022-12-06T05:50:40.536Z,22.42
2022-12-06T05:53:07.184Z,18.63
2022-12-06T05:55:33.908Z,20.10
2022-12-06T05:58:00.658Z,20.60
2022-12-06T06:00:27.334Z,19.30
2022-12-06T06:02:54.159Z,18.25
2022-12-06T06:05:20.929Z,17.08
2022-12-06T06:07:47.655Z,19.35
2022-12-06T06:10:14.814Z,19.35
2022-12-06T06:12:41.515Z,17.73
2022-12-06T06:15:08.456Z,29.33
2022-12-06T06:17:35.310Z,29.70
2022-12-06T06:20:05.700Z,18.55
2022-12-06T06:22:33.950Z,18.98
2022-12-06T06:25:01.150Z,20.08
2022-12-06T06:27:27.934Z,18.13
2022-12-06T06:29:54.721Z,18.83
2022-12-06T06:32:21.409Z,19.45
2022-12-06T06:34:48.070Z,18.10
2022-12-06T06:37:14.731Z,18.48
2022-12-06T06:39:41.361Z,16.45
2022-12-06T06:42:08.094Z,19.88
2022-12-06T06:44:34.753Z,18.15
2022-12-06T06:47:01.391Z,21.92
2022-12-06T06:49:28.040Z,20.05
2022-12-06T06:51:54.675Z,20.48
2022-12-06T06:54:21.744Z,21.55
2022-12-06T06:56:49.667Z,21.05
2022-12-06T06:59:16.311Z,20.27
2022-12-06T07:01:43.306Z,22.02
2022-12-06T07:04:09.945Z,21.13
2022-12-06T07:06:36.598Z,16.58
2022-12-06T07:09:03.526Z,20.63
2022-12-06T07:11:30.179Z,21.65
2022-12-06T07:13:56.907Z,21.58
2022-12-06T07:16:23.662Z,22.48
2022-12-06T07:18:50.559Z,22.70
2022-12-06T07:21:18.016Z,19.35
2022-12-06T07:23:44.623Z,22.92
2022-12-06T07:26:15.072Z,20.67
2022-12-06T07:28:42.848Z,20.73
2022-12-06T07:31:09.576Z,18.88
2022-12-06T07:33:36.731Z,21.00
2022-12-06T07:36:11.863Z,17.35
2022-12-06T07:38:39.433Z,19.38
2022-12-06T07:41:27.290Z,18.58
2022-12-06T07:44:16.009Z,18.92
2022-12-06T07:46:43.049Z,18.55
2022-12-06T07:49:09.896Z,17.85
2022-12-06T07:51:36.756Z,18.02
2022-12-06T07:54:03.794Z,18.27
2022-12-06T07:56:30.390Z,18.40
2022-12-06T07:58:57.047Z,17.83
2022-12-06T08:01:24.078Z,24.80
2022-12-06T08:03:50.835Z,19.75
2022-12-06T08:06:17.638Z,18.92
2022-12-06T08:08:44.255Z,21.13
2022-12-06T08:11:10.845Z,22.00
2022-12-06T08:13:37.555Z,22.35
2022-12-06T08:16:05.077Z,24.20
2022-12-06T08:18:31.899Z,22.33
2022-12-06T08:20:59.250Z,22.08
2022-12-06T08:23:32.225Z,22.42
2022-12-06T08:26:05.163Z,24.88
2022-12-06T08:28:33.272Z,23.52
2022-12-06T08:31:03.230Z,23.38
2022-12-06T08:33:32.437Z,24.10
2022-12-06T08:35:59.126Z,24.02
2022-12-06T08:38:25.776Z,26.30
2022-12-06T08:40:52.539Z,25.00
2022-12-06T08:43:19.201Z,27.63
2022-12-06T08:45:50.280Z,25.92
2022-12-06T08:48:17.155Z,22.70
2022-12-06T08:50:43.902Z,27.65
2022-12-06T08:53:10.639Z,20.27
2022-12-06T08:55:37.326Z,22.17
2022-12-06T08:58:03.980Z,20.33
2022-12-06T09:00:30.609Z,18.77
2022-12-06T09:02:57.203Z,21.05
2022-12-06T09:05:23.850Z,21.10
2022-12-06T09:07:50.550Z,21.75
2022-12-06T09:10:17.257Z,19.27
2022-12-06T09:12:43.805Z,20.70
2022-12-06T09:15:10.691Z,22.80
2022-12-06T09:17:37.383Z,20.67
2022-12-06T09:20:06.279Z,22.55
2022-12-06T09:22:33.277Z,25.23
2022-12-06T09:24:59.919Z,25.55
2022-12-06T09:27:29.827Z,22.85
2022-12-06T09:29:56.549Z,21.88
2022-12-06T09:32:23.652Z,20.08
2022-12-06T09:34:50.255Z,21.92
2022-12-06T09:37:16.989Z,22.42
2022-12-06T09:39:48.749Z,21.80
2022-12-06T09:42:15.422Z,25.23
2022-12-06T09:44:59.678Z,24.02
2022-12-06T09:47:41.567Z,22.63
2022-12-06T09:50:11.030Z,24.35
2022-12-06T09:52:49.994Z,28.45
2022-12-06T09:55:19.668Z,26.85
2022-12-06T09:57:51.776Z,25.02
2022-12-06T10:00:22.850Z,25.77
2022-12-06T10:03:08.400Z,25.17
2022-12-06T10:05:35.083Z,22.83
2022-12-06T10:08:04.680Z,24.48
2022-12-06T10:10:31.383Z,26.45
2022-12-06T10:13:04.439Z,24.92
2022-12-06T10:15:33.865Z,24.75
2022-12-06T10:18:01.138Z,27.67
2022-12-06T10:20:43.908Z,26.50
2022-12-06T10:23:10.568Z,24.70
2022-12-06T10:25:40.144Z,27.17
2022-12-06T10:28:13.957Z,26.02
2022-12-06T10:30:48.181Z,29.95
2022-12-06T10:33:28.797Z,28.25
2022-12-06T10:36:03.472Z,28.27
2022-12-06T10:38:42.031Z,25.92
2022-12-06T10:41:17.909Z,26.25
2022-12-06T10:43:53.778Z,26.15
2022-12-06T10:46:41.867Z,29.95
2022-12-06T10:49:27.181Z,29.35
2022-12-06T10:51:57.317Z,27.92
2022-12-06T10:54:26.696Z,26.88
2022-12-06T10:56:55.689Z,25.33
2022-12-06T10:59:28.582Z,26.02
2022-12-06T11:01:58.187Z,25.17
2022-12-06T11:04:44.653Z,28.00
2022-12-06T11:07:17.111Z,26.98
2022-12-06T11:09:50.016Z,24.92
2022-12-06T11:12:20.210Z,24.27
2022-12-06T11:14:49.531Z,25.50
2022-12-06T11:17:16.285Z,26.55
2022-12-06T11:19:49.636Z,25.95
2022-12-06T11:22:25.516Z,25.85
2022-12-06T11:24:57.773Z,25.30
2022-12-06T11:27:34.802Z,22.52
2022-12-06T11:30:13.688Z,23.23
2022-12-06T11:32:44.642Z,25.90
2022-12-06T11:35:15.537Z,25.15
2022-12-06T11:37:44.679Z,23.30
2022-12-06T11:40:26.302Z,22.50
2022-12-06T11:42:53.343Z,22.52
2022-12-06T11:45:24.350Z,20.92
2022-12-06T11:47:52.832Z,23.77
2022-12-06T11:50:20.073Z,21.60
2022-12-06T11:52:52.950Z,20.80
2022-12-06T11:55:27.804Z,22.52
2022-12-06T11:58:08.692Z,22.13
2022-12-06T12:00:35.509Z,19.10
2022-12-06T12:03:02.204Z,20.73
2022-12-06T12:05:30.983Z,19.73
2022-12-06T12:08:06.315Z,21.95
2022-12-06T12:10:34.563Z,21.38
2022-12-06T12:13:35.079Z,21.58
2022-12-06T12:16:03.422Z,22.42
2022-12-06T12:18:37.931Z,21.63
2022-12-06T12:21:06.396Z,22.70
2022-12-06T12:23:35.052Z,24.27
2022-12-06T12:26:18.489Z,22.88
2022-12-06T12:28:46.448Z,22.10
2022-12-06T12:31:20.583Z,23.17
2022-12-06T12:33:47.620Z,22.27
2022-12-06T12:36:20.345Z,25.70
2022-12-06T12:38:54.110Z,25.38
2022-12-06T12:41:26.246Z,23.67
2022-12-06T12:44:20.507Z,21.05
2022-12-06T12:46:44.215Z,23.17
2022-12-06T12:49:31.495Z,23.55
2022-12-06T12:51:58.600Z,24.55
2022-12-06T12:54:29.056Z,24.13
2022-12-06T12:56:56.147Z,22.10
2022-12-06T12:59:24.325Z,23.00
2022-12-06T13:01:56.542Z,24.80
2022-12-06T13:04:26.309Z,24.10
2022-12-06T13:06:56.267Z,24.20
2022-12-06T13:09:25.447Z,21.10
2022-12-06T13:11:55.153Z,22.67
2022-12-06T13:14:22.728Z,24.02
2022-12-06T13:16:52.087Z,21.90
2022-12-06T13:19:20.233Z,20.90
2022-12-06T13:21:48.022Z,22.70
2022-12-06T13:24:22.280Z,22.23
2022-12-06T13:26:57.893Z,20.25
2022-12-06T13:29:27.709Z,21.52
2022-12-06T13:31:56.275Z,21.63
2022-12-06T13:34:37.964Z,22.17
2022-12-06T13:37:24.786Z,20.35
2022-12-06T13:39:51.492Z,19.85
2022-12-06T13:42:23.696Z,21.52
2022-12-06T13:44:50.437Z,21.98
2022-12-06T13:47:29.333Z,21.50
2022-12-06T13:49:57.403Z,22.75
2022-12-06T13:52:42.335Z,21.10
2022-12-06T13:55:24.440Z,23.02
2022-12-06T13:57:51.092Z,21.35
2022-12-06T14:00:29.720Z,20.83
2022-12-06T14:02:59.425Z,26.90
2022-12-06T14:05:44.873Z,23.52
2022-12-06T14:08:12.622Z,22.90
2022-12-06T14:10:39.540Z,23.23
2022-12-06T14:13:06.247Z,23.67
2022-12-06T14:15:32.984Z,20.30
2022-12-06T14:18:04.385Z,21.63
2022-12-06T14:20:33.862Z,23.98
2022-12-06T14:23:00.538Z,22.60
2022-12-06T14:25:28.806Z,25.45
2022-12-06T14:28:03.874Z,24.45
2022-12-06T14:30:30.625Z,23.35
2022-12-06T14:32:58.104Z,28.33
2022-12-06T14:35:26.276Z,22.75
2022-12-06T14:37:56.127Z,24.60
2022-12-06T14:40:45.452Z,22.63
2022-12-06T14:43:19.323Z,21.95
2022-12-06T14:45:46.611Z,24.52
2022-12-06T14:48:13.456Z,25.35
2022-12-06T14:50:42.179Z,25.60
2022-12-06T14:53:13.057Z,26.77
2022-12-06T14:55:54.170Z,24.55
2022-12-06T14:58:22.487Z,21.67
2022-12-06T15:00:54.346Z,22.10
2022-12-06T15:03:26.010Z,25.33
2022-12-06T15:06:09.646Z,25.42
2022-12-06T15:08:37.688Z,24.55
2022-12-06T15:11:04.400Z,22.48
2022-12-06T15:13:31.070Z,23.60
2022-12-06T15:16:16.004Z,22.05
2022-12-06T15:18:58.006Z,21.63
2022-12-06T15:21:24.883Z,21.27
2022-12-06T15:23:55.528Z,24.40
2022-12-06T15:26:22.959Z,25.15
2022-12-06T15:28:50.223Z,21.85
2022-12-06T15:31:27.249Z,24.00
2022-12-06T15:33:54.492Z,21.90
2022-12-06T15:36:24.372Z,21.85
2022-12-06T15:38:51.043Z,22.50
2022-12-06T15:41:19.004Z,25.85
2022-12-06T15:43:45.728Z,23.80
2022-12-06T15:46:23.754Z,22.50
2022-12-06T15:48:51.397Z,21.83
2022-12-06T15:51:21.157Z,20.27
2022-12-06T15:53:48.911Z,20.33
2022-12-06T15:56:17.517Z,20.35
2022-12-06T15:58:44.224Z,20.15
2022-12-06T16:01:16.510Z,20.08
2022-12-06T16:03:44.479Z,19.83
2022-12-06T16:06:15.297Z,22.30
2022-12-06T16:08:42.536Z,18.70
2022-12-06T16:11:12.305Z,20.10
2022-12-06T16:13:39.545Z,23.20
2022-12-06T16:16:06.748Z,21.60
2022-12-06T16:18:33.731Z,22.83
2022-12-06T16:21:00.384Z,20.73
2022-12-06T16:26:35.317Z,26.90
2022-12-06T16:29:03.124Z,22.42
2022-12-06T16:31:30.069Z,23.02
2022-12-06T16:33:57.445Z,22.40
2022-12-06T16:36:27.548Z,21.23
2022-12-06T16:38:54.901Z,22.15
2022-12-06T16:41:23.292Z,21.30
2022-12-06T16:43:50.343Z,21.88
2022-12-06T16:46:17.011Z,20.67
2022-12-06T16:48:43.618Z,23.05
2022-12-06T16:51:13.929Z,22.90
2022-12-06T16:53:44.538Z,22.77
2022-12-06T16:56:14.117Z,24.73
2022-12-06T16:58:40.839Z,25.55
2022-12-06T17:01:21.369Z,21.90
2022-12-06T17:03:55.603Z,24.42
2022-12-06T17:06:22.888Z,29.50
2022-12-06T17:08:50.696Z,23.67
2022-12-06T17:11:37.188Z,25.42
2022-12-06T17:14:04.464Z,25.45
2022-12-06T17:16:35.314Z,30.58
2022-12-06T17:19:02.254Z,28.83
2022-12-06T17:21:29.250Z,22.40
2022-12-06T17:23:56.896Z,26.20
2022-12-06T17:26:23.616Z,25.33
2022-12-06T17:28:50.312Z,29.42
2022-12-06T17:31:17.043Z,26.65
2022-12-06T17:33:43.717Z,26.33
2022-12-06T17:36:11.517Z,26.58
2022-12-06T17:38:38.521Z,27.65
2022-12-06T17:41:49.960Z,25.20
2022-12-06T17:44:18.664Z,23.42
2022-12-06T17:46:45.578Z,25.42
2022-12-06T17:49:16.958Z,25.85
2022-12-06T17:51:43.670Z,25.98
2022-12-06T17:54:10.286Z,25.63
2022-12-06T17:56:36.947Z,25.70
2022-12-06T17:59:05.073Z,25.73
2022-12-06T18:01:58.093Z,26.95
2022-12-06T18:04:18.769Z,25.63
2022-12-06T18:06:45.383Z,25.75
2022-12-06T18:09:13.549Z,29.98
2022-12-06T18:11:40.496Z,31.83
2022-12-06T18:14:07.305Z,23.52
2022-12-06T18:16:35.535Z,27.45
2022-12-06T18:19:08.456Z,24.83
2022-12-06T18:21:39.644Z,29.90
2022-12-06T18:24:25.635Z,24.90
2022-12-06T18:26:56.399Z,28.73
2022-12-06T18:29:23.647Z,25.13
2022-12-06T18:31:51.327Z,27.58
2022-12-06T18:34:18.548Z,26.23
2022-12-06T18:36:45.258Z,29.35
2022-12-06T18:39:15.294Z,28.08
2022-12-06T18:41:45.685Z,27.42
2022-12-06T18:44:12.754Z,23.98
2022-12-06T18:46:41.548Z,26.60
2022-12-06T18:49:09.658Z,24.88
2022-12-06T18:51:36.530Z,26.88
2022-12-06T18:54:05.036Z,27.13
2022-12-06T18:56:33.009Z,25.88
2022-12-06T18:59:01.098Z,26.35
2022-12-06T19:01:34.175Z,25.63
2022-12-06T19:04:03.114Z,28.02
2022-12-06T19:06:34.133Z,26.98
2022-12-06T19:09:02.308Z,25.55
2022-12-06T19:11:29.050Z,25.15
2022-12-06T19:13:59.124Z,26.83
2022-12-06T19:16:27.326Z,27.08
2022-12-06T19:18:58.339Z,26.92
2022-12-06T19:21:25.620Z,30.00
2022-12-06T19:23:52.957Z,27.17
2022-12-06T19:26:19.753Z,28.38
2022-12-06T19:28:46.449Z,29.20
2022-12-06T19:31:13.923Z,28.48
2022-12-06T19:33:42.666Z,29.50
2022-12-06T19:36:15.733Z,27.17
2022-12-06T19:38:42.950Z,26.45
2022-12-06T19:41:12.525Z,27.65
2022-12-06T19:43:58.253Z,29.25
2022-12-06T19:46:26.390Z,28.52
2022-12-06T19:48:55.269Z,28.17
2022-12-06T19:51:22.268Z,25.02
2022-12-06T19:53:49.027Z,29.65
2022-12-06T19:56:17.029Z,29.20
2022-12-06T19:58:44.320Z,29.08
2022-12-06T20:01:11.816Z,28.42
2022-12-06T20:03:38.571Z,30.73
2022-12-06T20:06:07.302Z,30.63
2022-12-06T20:08:34.547Z,28.23
2022-12-06T20:11:05.076Z,29.58
2022-12-06T20:13:32.365Z,30.88
2022-12-06T20:16:02.147Z,30.35
2022-12-06T20:18:29.252Z,26.42
2022-12-06T20:20:56.137Z,32.05
2022-12-06T20:23:23.028Z,29.95
2022-12-06T20:25:50.081Z,30.95
2022-12-06T20:28:17.873Z,26.58
2022-12-06T20:30:44.547Z,29.50
2022-12-06T20:33:11.243Z,31.10
2022-12-06T20:35:38.035Z,30.70
2022-12-06T20:38:04.712Z,30.23
2022-12-06T20:40:31.892Z,28.95
2022-12-06T20:42:58.639Z,30.13
2022-12-06T20:45:25.330Z,28.60
2022-12-06T20:47:52.496Z,30.55
2022-12-06T20:50:19.220Z,29.83
2022-12-06T20:52:45.960Z,30.38
2022-12-06T20:55:12.608Z,27.77
2022-12-06T20:57:39.335Z,31.35
2022-12-06T21:00:07.960Z,30.45
2022-12-06T21:02:34.883Z,30.23
2022-12-06T21:05:01.566Z,27.70
2022-12-06T21:07:28.202Z,26.65
2022-12-06T21:09:54.920Z,26.88
2022-12-06T21:12:22.414Z,27.38
2022-12-06T21:14:49.158Z,26.25
2022-12-06T21:17:15.911Z,26.95
2022-12-06T21:19:42.719Z,24.95
2022-12-06T21:22:09.406Z,23.05
2022-12-06T21:24:36.106Z,24.35
2022-12-06T21:27:02.809Z,23.17
2022-12-06T21:29:31.236Z,23.60
2022-12-06T21:32:00.022Z,24.10
2022-12-06T21:34:26.727Z,23.33
2022-12-06T21:36:53.428Z,21.95
2022-12-06T21:39:20.061Z,23.90
2022-12-06T21:41:46.725Z,21.67
2022-12-06T21:44:13.342Z,23.45
2022-12-06T21:46:39.996Z,21.75
2022-12-06T21:49:06.727Z,22.08
2022-12-06T21:51:33.500Z,23.67
2022-12-06T21:54:00.209Z,23.48
2022-12-06T21:56:28.596Z,23.08
2022-12-06T21:58:55.575Z,24.45
2022-12-06T22:01:24.084Z,24.33
2022-12-06T22:03:51.820Z,23.30
2022-12-06T22:06:18.585Z,24.00
2022-12-06T22:08:45.860Z,24.92
2022-12-06T22:11:19.959Z,23.35
2022-12-06T22:13:47.911Z,24.52
2022-12-06T22:16:15.054Z,25.15
2022-12-06T22:18:45.281Z,23.08
2022-12-06T22:21:17.290Z,23.05
2022-12-06T22:23:44.014Z,21.70
2022-12-06T22:26:12.511Z,22.13
2022-12-06T22:28:39.165Z,23.75
2022-12-06T22:31:13.534Z,26.48
2022-12-06T22:33:40.685Z,26.17
2022-12-06T22:36:08.001Z,23.80
2022-12-06T22:38:34.776Z,27.08
2022-12-06T22:41:01.899Z,30.55
2022-12-06T22:43:29.142Z,26.55
2022-12-06T22:45:56.094Z,25.33
2022-12-06T22:48:22.794Z,23.92
2022-12-06T22:50:49.491Z,27.35
2022-12-06T22:53:16.220Z,24.05
2022-12-06T22:55:42.861Z,29.25
2022-12-06T22:58:09.483Z,30.50
2022-12-06T23:00:36.135Z,29.95
2022-12-06T23:03:02.804Z,26.55
2022-12-06T23:05:29.497Z,31.23
2022-12-06T23:07:57.360Z,29.15
2022-12-06T23:10:24.070Z,28.45
2022-12-06T23:12:50.732Z,27.83
2022-12-06T23:15:17.442Z,28.13
2022-12-06T23:17:44.079Z,27.02
2022-12-06T23:20:10.950Z,28.33
2022-12-06T23:22:37.620Z,27.23
2022-12-06T23:25:04.768Z,29.00
2022-12-06T23:27:31.372Z,29.15
2022-12-06T23:29:58.169Z,31.48
2022-12-06T23:32:25.020Z,31.67
2022-12-06T23:34:51.723Z,31.60
2022-12-06T23:37:18.356Z,29.23
2022-12-06T23:39:45.103Z,31.65
2022-12-06T23:42:11.746Z,29.00
2022-12-06T23:44:39.973Z,29.27
2022-12-06T23:47:06.713Z,32.20
2022-12-06T23:49:33.431Z,26.75
2022-12-06T23:52:00.058Z,32.28
2022-12-06T23:54:26.711Z,28.90
2022-12-06T23:56:53.370Z,29.75
2022-12-06T23:59:20.021Z,30.80
